sensor_id;sensor_type;location;lat;lon;timestamp;temperature;humidity
59311;DHT22;45078;51.654;21.250;2023-05-14T00:01:55;5.70;99.90
59311;DHT22;45078;51.654;21.250;2023-05-14T00:04:21;5.70;99.90
59311;DHT22;45078;51.654;21.250;2023-05-14T00:06:48;5.70;99.90
59311;DHT22;45078;51.654;21.250;2023-05-14T00:09:13;5.70;99.90
59311;DHT22;45078;51.654;21.250;2023-05-14T00:11:39;5.70;99.90
59311;DHT22;45078;51.654;21.250;2023-05-14T00:14:05;5.60;99.90
59311;DHT22;45078;51.654;21.250;2023-05-14T00:16:31;5.60;99.90
59311;DHT22;45078;51.654;21.250;2023-05-14T00:18:57;5.60;99.90
59311;DHT22;45078;51.654;21.250;2023-05-14T00:21:22;5.60;99.90
59311;DHT22;45078;51.654;21.250;2023-05-14T00:23:48;5.50;99.90
59311;DHT22;45078;51.654;21.250;2023-05-14T00:26:14;5.50;99.90
59311;DHT22;45078;51.654;21.250;2023-05-14T00:28:40;5.50;99.90
59311;DHT22;45078;51.654;21.250;2023-05-14T00:31:06;5.50;99.90
59311;DHT22;45078;51.654;21.250;2023-05-14T00:33:31;5.40;99.90
59311;DHT22;45078;51.654;21.250;2023-05-14T00:35:57;5.30;99.90
59311;DHT22;45078;51.654;21.250;2023-05-14T00:38:23;5.30;99.90
59311;DHT22;45078;51.654;21.250;2023-05-14T00:40:52;5.20;99.90
59311;DHT22;45078;51.654;21.250;2023-05-14T00:43:21;5.20;99.90
59311;DHT22;45078;51.654;21.250;2023-05-14T00:45:50;5.20;99.90
59311;DHT22;45078;51.654;21.250;2023-05-14T00:48:16;5.20;99.90
59311;DHT22;45078;51.654;21.250;2023-05-14T00:50:42;5.20;99.90
59311;DHT22;45078;51.654;21.250;2023-05-14T00:53:09;5.10;99.90
59311;DHT22;45078;51.654;21.250;2023-05-14T00:55:40;5.20;99.90
59311;DHT22;45078;51.654;21.250;2023-05-14T00:58:09;5.20;99.90
59311;DHT22;45078;51.654;21.250;2023-05-14T01:00:36;5.10;99.90
59311;DHT22;45078;51.654;21.250;2023-05-14T01:03:07;5.10;99.90
59311;DHT22;45078;51.654;21.250;2023-05-14T01:11:16;5.10;99.90
59311;DHT22;45078;51.654;21.250;2023-05-14T01:13:55;5.10;99.90
59311;DHT22;45078;51.654;21.250;2023-05-14T01:16:26;5.10;99.90
59311;DHT22;45078;51.654;21.250;2023-05-14T01:18:53;5.10;99.90
59311;DHT22;45078;51.654;21.250;2023-05-14T01:21:41;5.00;99.90
59311;DHT22;45078;51.654;21.250;2023-05-14T01:24:08;5.00;99.90
59311;DHT22;45078;51.654;21.250;2023-05-14T01:26:34;5.00;99.90
59311;DHT22;45078;51.654;21.250;2023-05-14T01:31:52;4.90;99.90
59311;DHT22;45078;51.654;21.250;2023-05-14T01:34:21;4.90;99.90
59311;DHT22;45078;51.654;21.250;2023-05-14T01:36:49;4.90;99.90
59311;DHT22;45078;51.654;21.250;2023-05-14T01:39:15;4.90;99.90
59311;DHT22;45078;51.654;21.250;2023-05-14T01:41:43;4.90;99.90
59311;DHT22;45078;51.654;21.250;2023-05-14T01:44:09;4.80;99.90
59311;DHT22;45078;51.654;21.250;2023-05-14T01:46:35;4.80;99.90
59311;DHT22;45078;51.654;21.250;2023-05-14T01:49:01;4.70;99.90
59311;DHT22;45078;51.654;21.250;2023-05-14T01:51:27;4.70;99.90
59311;DHT22;45078;51.654;21.250;2023-05-14T01:53:52;4.70;99.90
59311;DHT22;45078;51.654;21.250;2023-05-14T01:56:19;4.70;99.90
59311;DHT22;45078;51.654;21.250;2023-05-14T01:58:46;4.60;99.90
59311;DHT22;45078;51.654;21.250;2023-05-14T02:01:12;4.60;99.90
59311;DHT22;45078;51.654;21.250;2023-05-14T02:03:38;4.60;99.90
59311;DHT22;45078;51.654;21.250;2023-05-14T02:06:03;4.60;99.90
59311;DHT22;45078;51.654;21.250;2023-05-14T02:08:29;4.60;99.90
59311;DHT22;45078;51.654;21.250;2023-05-14T02:10:55;4.50;99.90
59311;DHT22;45078;51.654;21.250;2023-05-14T02:13:21;4.50;99.90
59311;DHT22;45078;51.654;21.250;2023-05-14T02:15:46;4.40;99.90
59311;DHT22;45078;51.654;21.250;2023-05-14T02:18:12;4.40;99.90
59311;DHT22;45078;51.654;21.250;2023-05-14T02:20:38;4.40;99.90
59311;DHT22;45078;51.654;21.250;2023-05-14T02:23:04;4.40;99.90
59311;DHT22;45078;51.654;21.250;2023-05-14T02:25:30;4.40;99.90
59311;DHT22;45078;51.654;21.250;2023-05-14T02:27:55;4.40;99.90
59311;DHT22;45078;51.654;21.250;2023-05-14T02:30:21;4.40;99.90
59311;DHT22;45078;51.654;21.250;2023-05-14T02:32:47;4.30;99.90
59311;DHT22;45078;51.654;21.250;2023-05-14T02:35:12;4.30;99.90
59311;DHT22;45078;51.654;21.250;2023-05-14T02:37:38;4.30;99.90
59311;DHT22;45078;51.654;21.250;2023-05-14T02:40:04;4.30;99.90
59311;DHT22;45078;51.654;21.250;2023-05-14T02:42:31;4.30;99.90
59311;DHT22;45078;51.654;21.250;2023-05-14T02:44:56;4.30;99.90
59311;DHT22;45078;51.654;21.250;2023-05-14T02:47:22;4.20;99.90
59311;DHT22;45078;51.654;21.250;2023-05-14T02:49:48;4.10;99.90
59311;DHT22;45078;51.654;21.250;2023-05-14T02:52:13;4.10;99.90
59311;DHT22;45078;51.654;21.250;2023-05-14T02:54:39;4.20;99.90
59311;DHT22;45078;51.654;21.250;2023-05-14T02:57:05;4.10;99.90
59311;DHT22;45078;51.654;21.250;2023-05-14T02:59:30;4.10;99.90
59311;DHT22;45078;51.654;21.250;2023-05-14T03:01:56;4.20;99.90
59311;DHT22;45078;51.654;21.250;2023-05-14T03:04:22;4.20;99.90
59311;DHT22;45078;51.654;21.250;2023-05-14T03:06:48;4.20;99.90
59311;DHT22;45078;51.654;21.250;2023-05-14T03:09:14;4.30;99.90
59311;DHT22;45078;51.654;21.250;2023-05-14T03:11:39;4.20;99.90
59311;DHT22;45078;51.654;21.250;2023-05-14T03:14:05;4.20;99.90
59311;DHT22;45078;51.654;21.250;2023-05-14T03:16:31;4.20;99.90
59311;DHT22;45078;51.654;21.250;2023-05-14T03:18:57;4.20;99.90
59311;DHT22;45078;51.654;21.250;2023-05-14T03:21:22;4.30;99.90
59311;DHT22;45078;51.654;21.250;2023-05-14T03:23:48;4.30;99.90
59311;DHT22;45078;51.654;21.250;2023-05-14T03:26:14;4.40;99.90
59311;DHT22;45078;51.654;21.250;2023-05-14T03:28:39;4.50;99.90
59311;DHT22;45078;51.654;21.250;2023-05-14T03:31:05;4.50;99.90
59311;DHT22;45078;51.654;21.250;2023-05-14T03:33:31;4.60;99.90
59311;DHT22;45078;51.654;21.250;2023-05-14T03:35:57;4.70;99.90
59311;DHT22;45078;51.654;21.250;2023-05-14T03:38:22;4.70;99.90
59311;DHT22;45078;51.654;21.250;2023-05-14T03:40:48;4.80;99.90
59311;DHT22;45078;51.654;21.250;2023-05-14T03:43:14;4.90;99.90
59311;DHT22;45078;51.654;21.250;2023-05-14T03:45:40;5.00;99.90
59311;DHT22;45078;51.654;21.250;2023-05-14T03:48:06;5.10;99.90
59311;DHT22;45078;51.654;21.250;2023-05-14T03:50:32;5.20;99.90
59311;DHT22;45078;51.654;21.250;2023-05-14T03:52:58;5.30;99.90
59311;DHT22;45078;51.654;21.250;2023-05-14T03:55:24;5.40;99.90
59311;DHT22;45078;51.654;21.250;2023-05-14T03:57:50;5.60;99.90
59311;DHT22;45078;51.654;21.250;2023-05-14T04:00:16;5.70;99.90
59311;DHT22;45078;51.654;21.250;2023-05-14T04:02:41;5.90;99.90
59311;DHT22;45078;51.654;21.250;2023-05-14T04:05:07;6.00;99.90
59311;DHT22;45078;51.654;21.250;2023-05-14T04:07:33;6.10;99.90
59311;DHT22;45078;51.654;21.250;2023-05-14T04:09:59;6.30;99.90
59311;DHT22;45078;51.654;21.250;2023-05-14T04:12:25;6.50;99.90
59311;DHT22;45078;51.654;21.250;2023-05-14T04:14:51;6.70;99.90
59311;DHT22;45078;51.654;21.250;2023-05-14T04:17:17;6.90;99.90
59311;DHT22;45078;51.654;21.250;2023-05-14T04:19:43;7.00;99.90
59311;DHT22;45078;51.654;21.250;2023-05-14T04:22:08;7.30;99.90
59311;DHT22;45078;51.654;21.250;2023-05-14T04:24:34;7.50;99.90
59311;DHT22;45078;51.654;21.250;2023-05-14T04:27:00;7.70;99.90
59311;DHT22;45078;51.654;21.250;2023-05-14T04:29:26;8.00;99.90
59311;DHT22;45078;51.654;21.250;2023-05-14T04:31:52;8.40;99.90
59311;DHT22;45078;51.654;21.250;2023-05-14T04:34:18;8.70;99.90
59311;DHT22;45078;51.654;21.250;2023-05-14T04:36:43;9.00;99.90
59311;DHT22;45078;51.654;21.250;2023-05-14T04:39:09;9.30;99.90
59311;DHT22;45078;51.654;21.250;2023-05-14T04:41:37;9.60;99.90
59311;DHT22;45078;51.654;21.250;2023-05-14T04:44:03;9.80;99.90
59311;DHT22;45078;51.654;21.250;2023-05-14T04:46:29;10.10;99.90
59311;DHT22;45078;51.654;21.250;2023-05-14T04:48:55;10.40;99.90
59311;DHT22;45078;51.654;21.250;2023-05-14T04:51:21;10.70;99.90
59311;DHT22;45078;51.654;21.250;2023-05-14T04:53:47;10.90;99.90
59311;DHT22;45078;51.654;21.250;2023-05-14T04:56:13;11.20;99.90
59311;DHT22;45078;51.654;21.250;2023-05-14T04:58:39;11.40;99.90
59311;DHT22;45078;51.654;21.250;2023-05-14T05:01:04;11.60;99.90
59311;DHT22;45078;51.654;21.250;2023-05-14T05:03:30;11.90;99.90
59311;DHT22;45078;51.654;21.250;2023-05-14T05:05:56;12.10;99.90
59311;DHT22;45078;51.654;21.250;2023-05-14T05:08:22;12.20;99.90
59311;DHT22;45078;51.654;21.250;2023-05-14T05:10:48;12.40;99.90
59311;DHT22;45078;51.654;21.250;2023-05-14T05:13:14;12.60;99.90
59311;DHT22;45078;51.654;21.250;2023-05-14T05:15:41;12.80;99.90
59311;DHT22;45078;51.654;21.250;2023-05-14T05:18:07;13.00;99.90
59311;DHT22;45078;51.654;21.250;2023-05-14T05:20:33;13.20;99.90
59311;DHT22;45078;51.654;21.250;2023-05-14T05:22:59;13.50;99.90
59311;DHT22;45078;51.654;21.250;2023-05-14T05:25:25;13.60;99.90
59311;DHT22;45078;51.654;21.250;2023-05-14T05:27:51;13.80;99.90
59311;DHT22;45078;51.654;21.250;2023-05-14T05:30:17;14.00;99.90
59311;DHT22;45078;51.654;21.250;2023-05-14T05:32:44;14.30;99.90
59311;DHT22;45078;51.654;21.250;2023-05-14T05:35:09;14.50;99.90
59311;DHT22;45078;51.654;21.250;2023-05-14T05:37:35;14.70;99.90
59311;DHT22;45078;51.654;21.250;2023-05-14T05:40:01;14.70;99.90
59311;DHT22;45078;51.654;21.250;2023-05-14T05:42:26;14.90;99.90
59311;DHT22;45078;51.654;21.250;2023-05-14T05:44:52;15.00;99.90
59311;DHT22;45078;51.654;21.250;2023-05-14T05:47:18;15.00;99.90
59311;DHT22;45078;51.654;21.250;2023-05-14T05:49:44;15.20;99.90
59311;DHT22;45078;51.654;21.250;2023-05-14T05:52:10;15.40;99.90
59311;DHT22;45078;51.654;21.250;2023-05-14T05:54:35;15.70;99.90
59311;DHT22;45078;51.654;21.250;2023-05-14T05:57:01;15.80;99.90
59311;DHT22;45078;51.654;21.250;2023-05-14T05:59:27;15.90;99.90
59311;DHT22;45078;51.654;21.250;2023-05-14T06:01:52;16.00;99.50
59311;DHT22;45078;51.654;21.250;2023-05-14T06:04:18;16.30;99.90
59311;DHT22;45078;51.654;21.250;2023-05-14T06:06:44;16.30;98.90
59311;DHT22;45078;51.654;21.250;2023-05-14T06:09:10;16.50;98.70
59311;DHT22;45078;51.654;21.250;2023-05-14T06:11:36;16.60;97.40
59311;DHT22;45078;51.654;21.250;2023-05-14T06:14:01;16.40;97.00
59311;DHT22;45078;51.654;21.250;2023-05-14T06:16:27;16.60;97.10
59311;DHT22;45078;51.654;21.250;2023-05-14T06:18:53;16.70;95.80
59311;DHT22;45078;51.654;21.250;2023-05-14T06:21:20;16.80;96.90
59311;DHT22;45078;51.654;21.250;2023-05-14T06:23:46;16.60;93.30
59311;DHT22;45078;51.654;21.250;2023-05-14T06:26:11;16.60;93.20
59311;DHT22;45078;51.654;21.250;2023-05-14T06:28:37;16.50;94.30
59311;DHT22;45078;51.654;21.250;2023-05-14T06:31:03;16.60;91.40
59311;DHT22;45078;51.654;21.250;2023-05-14T06:33:29;16.90;93.00
59311;DHT22;45078;51.654;21.250;2023-05-14T06:36:03;16.80;92.30
59311;DHT22;45078;51.654;21.250;2023-05-14T06:38:29;17.10;92.60
59311;DHT22;45078;51.654;21.250;2023-05-14T06:40:55;17.30;91.80
59311;DHT22;45078;51.654;21.250;2023-05-14T06:43:21;17.30;91.00
59311;DHT22;45078;51.654;21.250;2023-05-14T06:45:50;17.20;88.40
59311;DHT22;45078;51.654;21.250;2023-05-14T06:48:17;17.20;89.30
59311;DHT22;45078;51.654;21.250;2023-05-14T06:50:48;17.20;90.00
59311;DHT22;45078;51.654;21.250;2023-05-14T06:53:14;17.50;90.10
59311;DHT22;45078;51.654;21.250;2023-05-14T06:55:40;17.60;90.10
59311;DHT22;45078;51.654;21.250;2023-05-14T06:58:06;17.70;86.90
59311;DHT22;45078;51.654;21.250;2023-05-14T07:00:32;17.80;88.70
59311;DHT22;45078;51.654;21.250;2023-05-14T07:02:58;17.90;90.30
59311;DHT22;45078;51.654;21.250;2023-05-14T07:05:24;18.10;85.30
59311;DHT22;45078;51.654;21.250;2023-05-14T07:07:50;18.10;84.20
59311;DHT22;45078;51.654;21.250;2023-05-14T07:10:16;18.00;86.50
59311;DHT22;45078;51.654;21.250;2023-05-14T07:12:42;18.30;88.40
59311;DHT22;45078;51.654;21.250;2023-05-14T07:15:09;18.40;84.40
59311;DHT22;45078;51.654;21.250;2023-05-14T07:17:34;18.30;83.10
59311;DHT22;45078;51.654;21.250;2023-05-14T07:20:00;18.60;85.30
59311;DHT22;45078;51.654;21.250;2023-05-14T07:22:26;18.60;81.70
59311;DHT22;45078;51.654;21.250;2023-05-14T07:24:52;18.60;80.40
59311;DHT22;45078;51.654;21.250;2023-05-14T07:27:17;18.70;82.90
59311;DHT22;45078;51.654;21.250;2023-05-14T07:29:43;18.80;80.60
59311;DHT22;45078;51.654;21.250;2023-05-14T07:32:09;19.00;77.90
59311;DHT22;45078;51.654;21.250;2023-05-14T07:34:35;19.00;77.60
59311;DHT22;45078;51.654;21.250;2023-05-14T07:37:01;19.20;76.70
59311;DHT22;45078;51.654;21.250;2023-05-14T07:39:27;19.20;74.20
59311;DHT22;45078;51.654;21.250;2023-05-14T07:41:52;19.20;70.00
59311;DHT22;45078;51.654;21.250;2023-05-14T07:44:20;19.30;70.70
59311;DHT22;45078;51.654;21.250;2023-05-14T07:46:46;19.30;71.90
59311;DHT22;45078;51.654;21.250;2023-05-14T07:49:12;19.50;71.80
59311;DHT22;45078;51.654;21.250;2023-05-14T07:51:37;19.40;69.20
59311;DHT22;45078;51.654;21.250;2023-05-14T07:54:03;19.40;70.10
59311;DHT22;45078;51.654;21.250;2023-05-14T07:56:29;19.50;69.60
59311;DHT22;45078;51.654;21.250;2023-05-14T07:58:55;19.70;70.10
59311;DHT22;45078;51.654;21.250;2023-05-14T08:01:21;19.70;66.80
59311;DHT22;45078;51.654;21.250;2023-05-14T08:03:47;19.60;65.60
59311;DHT22;45078;51.654;21.250;2023-05-14T08:06:13;19.60;65.70
59311;DHT22;45078;51.654;21.250;2023-05-14T08:08:39;19.60;64.50
59311;DHT22;45078;51.654;21.250;2023-05-14T08:11:05;19.80;67.90
59311;DHT22;45078;51.654;21.250;2023-05-14T08:13:31;19.80;65.30
59311;DHT22;45078;51.654;21.250;2023-05-14T08:15:57;20.10;66.10
59311;DHT22;45078;51.654;21.250;2023-05-14T08:18:23;20.00;64.30
59311;DHT22;45078;51.654;21.250;2023-05-14T08:20:48;19.80;63.10
59311;DHT22;45078;51.654;21.250;2023-05-14T08:23:14;19.90;63.40
59311;DHT22;45078;51.654;21.250;2023-05-14T08:25:40;19.80;61.70
59311;DHT22;45078;51.654;21.250;2023-05-14T08:28:06;19.80;63.00
59311;DHT22;45078;51.654;21.250;2023-05-14T08:30:32;19.90;63.00
59311;DHT22;45078;51.654;21.250;2023-05-14T08:32:58;20.10;64.10
59311;DHT22;45078;51.654;21.250;2023-05-14T08:35:24;20.30;61.60
59311;DHT22;45078;51.654;21.250;2023-05-14T08:37:50;20.40;63.70
59311;DHT22;45078;51.654;21.250;2023-05-14T08:40:17;20.50;62.30
59311;DHT22;45078;51.654;21.250;2023-05-14T08:42:43;20.70;62.80
59311;DHT22;45078;51.654;21.250;2023-05-14T08:45:20;20.70;60.30
59311;DHT22;45078;51.654;21.250;2023-05-14T08:47:49;20.80;59.50
59311;DHT22;45078;51.654;21.250;2023-05-14T08:50:15;20.90;59.80
59311;DHT22;45078;51.654;21.250;2023-05-14T08:52:41;20.80;60.30
59311;DHT22;45078;51.654;21.250;2023-05-14T08:55:08;20.80;58.80
59311;DHT22;45078;51.654;21.250;2023-05-14T08:57:35;20.70;61.30
59311;DHT22;45078;51.654;21.250;2023-05-14T09:00:02;20.50;60.60
59311;DHT22;45078;51.654;21.250;2023-05-14T09:02:41;20.80;60.90
59311;DHT22;45078;51.654;21.250;2023-05-14T09:05:09;20.70;59.30
59311;DHT22;45078;51.654;21.250;2023-05-14T09:07:35;20.60;59.20
59311;DHT22;45078;51.654;21.250;2023-05-14T09:10:01;20.80;61.20
59311;DHT22;45078;51.654;21.250;2023-05-14T09:12:28;20.90;59.70
59311;DHT22;45078;51.654;21.250;2023-05-14T09:14:54;20.80;59.50
59311;DHT22;45078;51.654;21.250;2023-05-14T09:17:20;21.00;61.50
59311;DHT22;45078;51.654;21.250;2023-05-14T09:19:46;21.10;59.30
59311;DHT22;45078;51.654;21.250;2023-05-14T09:22:15;20.90;57.30
59311;DHT22;45078;51.654;21.250;2023-05-14T09:24:42;20.80;56.10
59311;DHT22;45078;51.654;21.250;2023-05-14T09:27:13;20.90;57.60
59311;DHT22;45078;51.654;21.250;2023-05-14T09:29:40;21.10;57.40
59311;DHT22;45078;51.654;21.250;2023-05-14T09:32:06;21.10;56.80
59311;DHT22;45078;51.654;21.250;2023-05-14T09:34:34;20.90;57.80
59311;DHT22;45078;51.654;21.250;2023-05-14T09:37:04;20.90;57.50
59311;DHT22;45078;51.654;21.250;2023-05-14T09:39:30;21.00;57.40
59311;DHT22;45078;51.654;21.250;2023-05-14T09:41:57;20.90;58.10
59311;DHT22;45078;51.654;21.250;2023-05-14T09:44:23;21.10;57.90
59311;DHT22;45078;51.654;21.250;2023-05-14T09:46:49;21.20;55.70
59311;DHT22;45078;51.654;21.250;2023-05-14T09:49:16;20.90;56.00
59311;DHT22;45078;51.654;21.250;2023-05-14T09:51:41;21.20;59.90
59311;DHT22;45078;51.654;21.250;2023-05-14T09:54:08;21.20;56.30
59311;DHT22;45078;51.654;21.250;2023-05-14T09:56:34;21.30;55.50
59311;DHT22;45078;51.654;21.250;2023-05-14T09:59:01;21.10;55.50
59311;DHT22;45078;51.654;21.250;2023-05-14T10:01:29;21.20;56.70
59311;DHT22;45078;51.654;21.250;2023-05-14T10:03:55;21.10;55.60
59311;DHT22;45078;51.654;21.250;2023-05-14T10:06:29;21.20;58.40
59311;DHT22;45078;51.654;21.250;2023-05-14T10:09:00;21.10;55.10
59311;DHT22;45078;51.654;21.250;2023-05-14T10:11:30;21.20;57.10
59311;DHT22;45078;51.654;21.250;2023-05-14T10:14:12;21.30;55.90
59311;DHT22;45078;51.654;21.250;2023-05-14T10:16:52;21.20;54.80
59311;DHT22;45078;51.654;21.250;2023-05-14T10:19:23;21.40;55.60
59311;DHT22;45078;51.654;21.250;2023-05-14T10:21:58;21.50;54.90
59311;DHT22;45078;51.654;21.250;2023-05-14T10:24:26;21.30;56.70
59311;DHT22;45078;51.654;21.250;2023-05-14T10:26:52;21.40;54.40
59311;DHT22;45078;51.654;21.250;2023-05-14T10:29:18;21.60;56.00
59311;DHT22;45078;51.654;21.250;2023-05-14T10:31:52;21.70;55.20
59311;DHT22;45078;51.654;21.250;2023-05-14T10:34:38;21.70;56.50
59311;DHT22;45078;51.654;21.250;2023-05-14T10:37:19;21.60;54.80
59311;DHT22;45078;51.654;21.250;2023-05-14T10:39:53;21.50;54.70
59311;DHT22;45078;51.654;21.250;2023-05-14T10:42:41;21.10;54.50
59311;DHT22;45078;51.654;21.250;2023-05-14T10:45:10;21.20;55.40
59311;DHT22;45078;51.654;21.250;2023-05-14T10:47:37;21.40;56.30
59311;DHT22;45078;51.654;21.250;2023-05-14T10:50:05;21.50;55.80
59311;DHT22;45078;51.654;21.250;2023-05-14T10:52:32;21.40;55.20
59311;DHT22;45078;51.654;21.250;2023-05-14T10:55:00;21.40;56.00
59311;DHT22;45078;51.654;21.250;2023-05-14T10:57:28;21.20;56.10
59311;DHT22;45078;51.654;21.250;2023-05-14T10:59:57;21.30;53.90
59311;DHT22;45078;51.654;21.250;2023-05-14T11:02:27;21.40;56.00
59311;DHT22;45078;51.654;21.250;2023-05-14T11:04:58;21.50;59.30
59311;DHT22;45078;51.654;21.250;2023-05-14T11:07:36;21.60;56.30
59311;DHT22;45078;51.654;21.250;2023-05-14T11:10:05;21.70;56.20
59311;DHT22;45078;51.654;21.250;2023-05-14T11:12:36;21.90;56.40
59311;DHT22;45078;51.654;21.250;2023-05-14T11:15:05;21.80;54.60
59311;DHT22;45078;51.654;21.250;2023-05-14T11:17:31;21.90;54.30
59311;DHT22;45078;51.654;21.250;2023-05-14T11:19:57;21.70;53.80
59311;DHT22;45078;51.654;21.250;2023-05-14T11:22:23;21.80;54.30
59311;DHT22;45078;51.654;21.250;2023-05-14T11:24:49;21.80;54.00
59311;DHT22;45078;51.654;21.250;2023-05-14T11:27:17;21.60;53.60
59311;DHT22;45078;51.654;21.250;2023-05-14T11:29:44;21.90;55.00
59311;DHT22;45078;51.654;21.250;2023-05-14T11:32:11;22.00;53.50
59311;DHT22;45078;51.654;21.250;2023-05-14T11:34:37;21.90;50.30
59311;DHT22;45078;51.654;21.250;2023-05-14T11:37:04;21.80;51.60
59311;DHT22;45078;51.654;21.250;2023-05-14T11:39:31;21.90;52.90
59311;DHT22;45078;51.654;21.250;2023-05-14T11:42:04;21.70;52.60
59311;DHT22;45078;51.654;21.250;2023-05-14T11:44:33;21.90;52.40
59311;DHT22;45078;51.654;21.250;2023-05-14T11:46:59;22.10;52.10
59311;DHT22;45078;51.654;21.250;2023-05-14T11:49:27;21.80;51.60
59311;DHT22;45078;51.654;21.250;2023-05-14T11:52:00;21.90;53.10
59311;DHT22;45078;51.654;21.250;2023-05-14T11:54:30;22.00;51.70
59311;DHT22;45078;51.654;21.250;2023-05-14T11:56:56;22.00;53.50
59311;DHT22;45078;51.654;21.250;2023-05-14T11:59:30;22.20;54.10
59311;DHT22;45078;51.654;21.250;2023-05-14T12:01:57;22.30;51.90
59311;DHT22;45078;51.654;21.250;2023-05-14T12:04:23;22.30;52.60
59311;DHT22;45078;51.654;21.250;2023-05-14T12:06:49;22.40;52.40
59311;DHT22;45078;51.654;21.250;2023-05-14T12:09:22;22.60;51.90
59311;DHT22;45078;51.654;21.250;2023-05-14T12:11:49;22.40;50.40
59311;DHT22;45078;51.654;21.250;2023-05-14T12:14:19;22.20;50.50
59311;DHT22;45078;51.654;21.250;2023-05-14T12:16:46;22.10;51.20
59311;DHT22;45078;51.654;21.250;2023-05-14T12:19:18;22.20;50.30
59311;DHT22;45078;51.654;21.250;2023-05-14T12:21:46;22.20;49.80
59311;DHT22;45078;51.654;21.250;2023-05-14T12:24:14;22.10;49.70
59311;DHT22;45078;51.654;21.250;2023-05-14T12:26:44;22.10;50.40
59311;DHT22;45078;51.654;21.250;2023-05-14T12:29:12;22.20;50.10
59311;DHT22;45078;51.654;21.250;2023-05-14T12:31:47;22.30;51.10
59311;DHT22;45078;51.654;21.250;2023-05-14T12:34:14;22.10;49.40
59311;DHT22;45078;51.654;21.250;2023-05-14T12:36:40;22.20;50.60
59311;DHT22;45078;51.654;21.250;2023-05-14T12:39:06;22.40;52.10
59311;DHT22;45078;51.654;21.250;2023-05-14T12:41:32;22.20;50.80
59311;DHT22;45078;51.654;21.250;2023-05-14T12:43:59;22.10;52.20
59311;DHT22;45078;51.654;21.250;2023-05-14T12:46:26;22.10;52.30
59311;DHT22;45078;51.654;21.250;2023-05-14T12:48:53;21.90;51.70
59311;DHT22;45078;51.654;21.250;2023-05-14T12:51:19;22.10;52.10
59311;DHT22;45078;51.654;21.250;2023-05-14T12:53:45;22.40;51.80
59311;DHT22;45078;51.654;21.250;2023-05-14T12:56:11;22.20;52.20
59311;DHT22;45078;51.654;21.250;2023-05-14T12:58:37;22.00;52.20
59311;DHT22;45078;51.654;21.250;2023-05-14T13:01:04;22.20;52.90
59311;DHT22;45078;51.654;21.250;2023-05-14T13:03:30;22.40;53.60
59311;DHT22;45078;51.654;21.250;2023-05-14T13:05:56;22.70;55.00
59311;DHT22;45078;51.654;21.250;2023-05-14T13:08:22;22.80;53.10
59311;DHT22;45078;51.654;21.250;2023-05-14T13:10:51;22.60;52.80
59311;DHT22;45078;51.654;21.250;2023-05-14T13:13:17;22.60;50.80
59311;DHT22;45078;51.654;21.250;2023-05-14T13:15:43;22.60;52.30
59311;DHT22;45078;51.654;21.250;2023-05-14T13:18:17;22.70;52.60
59311;DHT22;45078;51.654;21.250;2023-05-14T13:20:44;22.70;52.50
59311;DHT22;45078;51.654;21.250;2023-05-14T13:23:10;22.50;52.00
59311;DHT22;45078;51.654;21.250;2023-05-14T13:25:36;22.80;52.90
59311;DHT22;45078;51.654;21.250;2023-05-14T13:28:02;22.90;53.10
59311;DHT22;45078;51.654;21.250;2023-05-14T13:30:28;23.00;52.50
59311;DHT22;45078;51.654;21.250;2023-05-14T13:32:54;23.20;53.10
59311;DHT22;45078;51.654;21.250;2023-05-14T13:35:20;22.80;51.80
59311;DHT22;45078;51.654;21.250;2023-05-14T13:37:46;22.80;52.30
59311;DHT22;45078;51.654;21.250;2023-05-14T13:40:12;22.90;51.60
59311;DHT22;45078;51.654;21.250;2023-05-14T13:42:38;23.40;53.10
59311;DHT22;45078;51.654;21.250;2023-05-14T13:45:05;23.20;52.60
59311;DHT22;45078;51.654;21.250;2023-05-14T13:47:31;23.50;53.40
59311;DHT22;45078;51.654;21.250;2023-05-14T13:49:58;23.40;51.20
59311;DHT22;45078;51.654;21.250;2023-05-14T13:52:24;23.30;52.30
59311;DHT22;45078;51.654;21.250;2023-05-14T13:54:51;23.20;52.20
59311;DHT22;45078;51.654;21.250;2023-05-14T13:57:18;23.20;51.30
59311;DHT22;45078;51.654;21.250;2023-05-14T13:59:45;23.50;51.70
59311;DHT22;45078;51.654;21.250;2023-05-14T14:02:11;23.70;51.30
59311;DHT22;45078;51.654;21.250;2023-05-14T14:04:37;24.10;50.10
59311;DHT22;45078;51.654;21.250;2023-05-14T14:07:03;24.20;52.00
59311;DHT22;45078;51.654;21.250;2023-05-14T14:09:29;24.30;50.40
59311;DHT22;45078;51.654;21.250;2023-05-14T14:12:00;23.90;51.10
59311;DHT22;45078;51.654;21.250;2023-05-14T14:14:26;24.50;50.20
59311;DHT22;45078;51.654;21.250;2023-05-14T14:16:52;24.30;50.70
59311;DHT22;45078;51.654;21.250;2023-05-14T14:19:18;24.20;50.40
59311;DHT22;45078;51.654;21.250;2023-05-14T14:21:44;24.40;50.40
59311;DHT22;45078;51.654;21.250;2023-05-14T14:24:09;24.20;51.60
59311;DHT22;45078;51.654;21.250;2023-05-14T14:26:35;23.90;50.50
59311;DHT22;45078;51.654;21.250;2023-05-14T14:29:01;23.80;51.90
59311;DHT22;45078;51.654;21.250;2023-05-14T14:31:27;24.20;52.80
59311;DHT22;45078;51.654;21.250;2023-05-14T14:33:53;24.10;50.70
59311;DHT22;45078;51.654;21.250;2023-05-14T14:36:18;23.90;52.50
59311;DHT22;45078;51.654;21.250;2023-05-14T14:38:44;24.20;52.80
59311;DHT22;45078;51.654;21.250;2023-05-14T14:41:10;23.90;52.50
59311;DHT22;45078;51.654;21.250;2023-05-14T14:43:37;23.90;51.20
59311;DHT22;45078;51.654;21.250;2023-05-14T14:46:02;23.60;52.40
59311;DHT22;45078;51.654;21.250;2023-05-14T14:48:30;23.50;51.20
59311;DHT22;45078;51.654;21.250;2023-05-14T14:50:58;23.60;52.30
59311;DHT22;45078;51.654;21.250;2023-05-14T14:53:25;23.80;52.30
59311;DHT22;45078;51.654;21.250;2023-05-14T14:55:52;23.80;51.30
59311;DHT22;45078;51.654;21.250;2023-05-14T14:58:18;24.10;52.10
59311;DHT22;45078;51.654;21.250;2023-05-14T15:00:45;24.10;52.30
59311;DHT22;45078;51.654;21.250;2023-05-14T15:03:10;23.50;52.00
59311;DHT22;45078;51.654;21.250;2023-05-14T15:05:36;23.30;53.50
59311;DHT22;45078;51.654;21.250;2023-05-14T15:08:03;23.50;52.60
59311;DHT22;45078;51.654;21.250;2023-05-14T15:10:30;23.70;54.40
59311;DHT22;45078;51.654;21.250;2023-05-14T15:12:59;23.40;52.70
59311;DHT22;45078;51.654;21.250;2023-05-14T15:15:25;23.00;53.90
59311;DHT22;45078;51.654;21.250;2023-05-14T15:17:51;23.00;53.90
59311;DHT22;45078;51.654;21.250;2023-05-14T15:20:17;22.90;53.80
59311;DHT22;45078;51.654;21.250;2023-05-14T15:22:43;23.10;53.50
59311;DHT22;45078;51.654;21.250;2023-05-14T15:25:09;23.00;53.80
59311;DHT22;45078;51.654;21.250;2023-05-14T15:27:35;22.90;53.60